createdAt,value
2022-10-22T00:00:56.263Z,7.04
2022-10-22T00:09:30.907Z,7.07
2022-10-22T00:17:53.664Z,7.13
2022-10-22T00:26:16.559Z,7.12
2022-10-22T00:34:39.534Z,7.06
2022-10-22T00:43:02.311Z,7.06
2022-10-22T00:51:30.288Z,7.11
2022-10-22T00:59:55.782Z,7.17
2022-10-22T01:08:33.374Z,7.18
2022-10-22T01:17:02.776Z,7.19
2022-10-22T01:25:37.327Z,7.23
2022-10-22T01:34:01.278Z,7.22
2022-10-22T01:42:24.448Z,7.20
2022-10-22T01:51:02.275Z,7.26
2022-10-22T01:59:36.294Z,7.31
2022-10-22T02:08:16.154Z,7.29
2022-10-22T02:16:43.164Z,7.33
2022-10-22T02:25:07.062Z,7.42
2022-10-22T02:33:37.793Z,7.42
2022-10-22T02:42:02.718Z,7.40
2022-10-22T02:50:25.479Z,7.43
2022-10-22T02:58:48.630Z,7.49
2022-10-22T03:07:11.635Z,7.50
2022-10-22T03:15:34.637Z,7.53
2022-10-22T03:23:58.349Z,7.59
2022-10-22T03:32:21.187Z,7.56
2022-10-22T03:40:46.267Z,7.46
2022-10-22T03:49:09.256Z,7.46
2022-10-22T03:57:32.361Z,7.56
2022-10-22T04:06:01.385Z,7.66
2022-10-22T04:14:25.403Z,7.72
2022-10-22T04:22:48.348Z,7.79
2022-10-22T04:31:14.631Z,7.88
2022-10-22T04:39:37.476Z,7.94
2022-10-22T04:48:00.595Z,8.02
2022-10-22T04:56:33.308Z,8.02
2022-10-22T05:04:56.130Z,7.95
2022-10-22T05:13:18.938Z,7.93
2022-10-22T05:21:41.760Z,7.91
2022-10-22T05:30:05.274Z,7.92
2022-10-22T05:38:28.206Z,7.97
2022-10-22T05:46:51.035Z,7.99
2022-10-22T05:55:13.972Z,8.05
2022-10-22T06:03:36.909Z,8.19
2022-10-22T06:11:59.803Z,8.33
2022-10-22T06:20:22.601Z,8.48
2022-10-22T06:28:45.629Z,8.60
2022-10-22T06:37:10.013Z,8.67
2022-10-22T06:45:33.044Z,8.69
2022-10-22T06:53:56.845Z,8.83
2022-10-22T07:02:19.753Z,9.01
2022-10-22T07:10:45.712Z,9.12
2022-10-22T07:19:09.210Z,9.12
2022-10-22T07:27:32.283Z,9.13
2022-10-22T07:36:07.213Z,9.14
2022-10-22T07:44:30.340Z,9.23
2022-10-22T07:52:54.868Z,9.33
2022-10-22T08:01:20.424Z,9.44
2022-10-22T08:09:43.535Z,9.71
2022-10-22T08:18:07.158Z,9.85
2022-10-22T08:26:30.995Z,9.97
2022-10-22T08:34:54.900Z,10.26
2022-10-22T08:43:58.389Z,10.42
2022-10-22T08:52:22.063Z,10.55
2022-10-22T09:00:52.544Z,10.77
2022-10-22T09:09:18.438Z,10.87
2022-10-22T09:17:55.418Z,10.90
2022-10-22T09:26:18.410Z,11.02
2022-10-22T09:34:43.733Z,11.25
2022-10-22T09:43:06.761Z,11.31
2022-10-22T09:51:52.925Z,11.32
2022-10-22T10:00:20.510Z,11.29
2022-10-22T10:08:43.567Z,11.26
2022-10-22T10:17:37.518Z,11.41
2022-10-22T10:26:24.160Z,11.66
2022-10-22T10:34:58.066Z,11.58
2022-10-22T10:43:23.872Z,11.46
2022-10-22T10:51:55.462Z,11.44
2022-10-22T11:00:21.043Z,11.41
2022-10-22T11:08:58.154Z,11.47
2022-10-22T11:17:23.293Z,11.59
2022-10-22T11:25:48.251Z,11.70
2022-10-22T11:34:39.890Z,11.79
2022-10-22T11:43:06.680Z,11.84
2022-10-22T11:51:35.624Z,11.88
2022-10-22T12:00:00.853Z,12.01
2022-10-22T12:08:26.668Z,12.16
2022-10-22T12:17:05.906Z,12.06
2022-10-22T12:25:35.734Z,11.93
2022-10-22T12:33:59.574Z,11.90
2022-10-22T12:42:23.947Z,11.82
2022-10-22T12:50:54.448Z,11.79
2022-10-22T12:59:22.733Z,11.82
2022-10-22T13:08:10.191Z,11.79
2022-10-22T13:16:33.437Z,11.84
2022-10-22T13:25:00.030Z,11.98
2022-10-22T13:33:40.379Z,12.12
2022-10-22T13:42:03.304Z,12.22
2022-10-22T13:50:26.179Z,12.39
2022-10-22T13:58:49.810Z,12.41
2022-10-22T14:07:15.852Z,12.35
2022-10-22T14:15:39.934Z,12.33
2022-10-22T14:24:08.248Z,12.29
2022-10-22T14:32:33.694Z,12.19
2022-10-22T14:40:59.229Z,12.13
2022-10-22T14:49:22.232Z,12.06
2022-10-22T14:57:45.889Z,11.97
2022-10-22T15:06:08.918Z,11.92
2022-10-22T15:14:31.981Z,11.89
2022-10-22T15:22:54.780Z,11.79
2022-10-22T15:31:47.138Z,11.72
2022-10-22T15:40:10.422Z,11.70
2022-10-22T15:48:33.706Z,11.68
2022-10-22T15:56:57.700Z,11.70
2022-10-22T16:05:21.179Z,11.72
2022-10-22T16:13:44.027Z,11.71
2022-10-22T16:22:09.735Z,11.64
2022-10-22T16:30:34.705Z,11.59
2022-10-22T16:38:57.677Z,11.53
2022-10-22T16:47:22.034Z,11.55
2022-10-22T16:55:45.862Z,11.59
2022-10-22T17:04:10.080Z,11.61
2022-10-22T17:12:35.520Z,11.64
2022-10-22T17:20:59.078Z,11.69
2022-10-22T17:29:22.500Z,11.62
2022-10-22T17:37:45.414Z,11.57
2022-10-22T17:46:16.388Z,11.58
2022-10-22T17:54:41.866Z,11.59
2022-10-22T18:03:05.477Z,11.65
2022-10-22T18:11:28.403Z,11.71
2022-10-22T18:19:51.255Z,11.74
2022-10-22T18:28:15.981Z,11.67
2022-10-22T18:36:40.827Z,11.67
2022-10-22T18:45:04.227Z,11.70
2022-10-22T18:53:27.542Z,11.74
2022-10-22T19:01:52.710Z,11.76
2022-10-22T19:10:16.068Z,11.78
2022-10-22T19:18:39.764Z,11.78
2022-10-22T19:27:02.612Z,11.79
2022-10-22T19:35:25.492Z,11.81
2022-10-22T19:43:52.342Z,11.84
2022-10-22T19:52:15.445Z,11.89
2022-10-22T20:00:38.884Z,11.89
2022-10-22T20:09:01.876Z,11.89
2022-10-22T20:17:24.828Z,11.91
2022-10-22T20:25:48.650Z,11.91
2022-10-22T20:34:11.998Z,11.91
2022-10-22T20:42:35.578Z,11.92
2022-10-22T20:50:59.868Z,11.89
2022-10-22T20:59:24.544Z,11.82
2022-10-22T21:07:47.514Z,11.80
2022-10-22T21:16:13.027Z,11.79
2022-10-22T21:24:35.845Z,11.78
2022-10-22T21:32:58.645Z,11.72
2022-10-22T21:41:24.644Z,11.69
2022-10-22T21:49:47.683Z,11.66
2022-10-22T21:58:10.515Z,11.67
2022-10-22T22:06:35.708Z,11.69
2022-10-22T22:14:58.547Z,11.70
2022-10-22T22:23:21.424Z,11.73
2022-10-22T22:31:46.224Z,11.76
2022-10-22T22:40:10.298Z,11.77
2022-10-22T22:48:34.356Z,11.77
2022-10-22T22:56:57.272Z,11.73
2022-10-22T23:05:20.299Z,11.74
2022-10-22T23:13:43.923Z,11.78
2022-10-22T23:22:07.129Z,11.81
2022-10-22T23:30:30.021Z,11.82
2022-10-22T23:38:53.122Z,11.83
2022-10-22T23:47:15.937Z,11.85
2022-10-22T23:55:41.125Z,11.86
